Leeds, North Dakota
Current Conditions -  °F | °C
As of 4:15 PM on Saturday 25 Oct 2014 (Local Time) from K9D7 Reporting Station
Clear Clear  
Wind Chill: 57°   Ceiling: Unl
Heat Index: 57°   Visibility: 10mi
Dew Point: 23°   Wind: 13mph
Humidity: 27%   Direction: 290°WNW
Pressure: 30.06"   Gusts: NA
Location:  48.29°N, 99.44°W
Report Text: K9D7 252115Z AUTO 29011KT 10SM CLR 14/M05 A3006 RMK AO2
Loading
Personal Weather Stations






























Interactive Weather Map
Tropical Storm Tracking
New forecast layout! Learn more

10-Day Weather Forecast

Advertisements
Track Severe Weather on mobile